Time;durP1;ratioP1;P1;durP2;ratioP2;P2;SDS_P1;SDS_P2;PMS_P1;PMS_P2;Temp;Humidity;BMP_temperature;BMP_pressure;BME280_temperature;BME280_humidity;BME280_pressure;Samples;Min_cycle;Max_cycle;Signal;HPM_P1;HPM_P2
2022/10/05 00:00:18;;;;;;;8.32;3.35;;;;;;;8.08;100.00;99702.88;4423691;32;20121;-80
2022/10/05 00:02:47;;;;;;;8.55;3.78;;;;;;;8.02;100.00;99697.25;4423546;32;20109;-80
2022/10/05 00:05:25;;;;;;;6.95;3.95;;;;;;;7.95;100.00;99712.47;4423664;32;20120;-80
2022/10/05 00:07:56;;;;;;;5.03;3.30;;;;;;;7.95;100.00;99702.03;4423353;32;20204;-80
2022/10/05 00:10:23;;;;;;;5.68;3.40;;;;;;;7.91;100.00;99701.34;4423687;32;20181;-81
2022/10/05 00:12:50;;;;;;;6.85;3.25;;;;;;;7.89;100.00;99697.16;4423504;32;20137;-80
2022/10/05 00:15:19;;;;;;;8.48;3.28;;;;;;;7.94;100.00;99690.72;4423722;32;20479;-80
2022/10/05 00:17:46;;;;;;;4.18;3.37;;;;;;;7.96;100.00;99688.87;4422055;32;20113;-80
2022/10/05 00:20:18;;;;;;;6.05;3.35;;;;;;;7.92;100.00;99687.38;4423898;32;20094;-80
2022/10/05 00:22:45;;;;;;;9.25;3.65;;;;;;;7.86;100.00;99687.78;4423427;32;20458;-80
2022/10/05 00:25:18;;;;;;;5.65;3.40;;;;;;;7.84;100.00;99688.81;4423516;32;20404;-80
2022/10/05 00:27:55;;;;;;;6.50;3.50;;;;;;;7.79;100.00;99689.09;4407833;32;20078;-80
2022/10/05 00:30:25;;;;;;;6.32;3.20;;;;;;;7.76;100.00;99684.06;4408207;32;20157;-80
2022/10/05 00:32:52;;;;;;;5.82;3.37;;;;;;;7.80;100.00;99686.38;4408073;32;20428;-81
2022/10/05 00:35:28;;;;;;;9.25;3.78;;;;;;;7.86;100.00;99687.78;4408099;32;20526;-80
2022/10/05 00:37:55;;;;;;;8.93;2.90;;;;;;;7.87;100.00;99692.03;4408208;32;20129;-80
2022/10/05 00:40:45;;;;;;;6.90;3.30;;;;;;;7.64;100.00;99696.97;4408221;32;20121;-80
2022/10/05 00:43:33;;;;;;;5.07;3.03;;;;;;;7.61;100.00;99691.91;4406651;32;20128;-81
2022/10/05 00:46:10;;;;;;;6.32;3.00;;;;;;;7.75;100.00;99690.22;4408074;32;20110;-80
2022/10/05 00:48:51;;;;;;;7.90;2.80;;;;;;;7.93;100.00;99686.47;4406559;32;20086;-80
2022/10/05 00:51:29;;;;;;;6.28;2.75;;;;;;;8.13;100.00;99684.31;4406889;32;20140;-80
2022/10/05 00:54:04;;;;;;;6.40;2.92;;;;;;;8.18;100.00;99685.72;4406904;32;20090;-80
2022/10/05 00:56:49;;;;;;;4.10;2.55;;;;;;;8.15;100.00;99692.91;4408141;32;20113;-80
2022/10/05 00:59:32;;;;;;;4.28;2.47;;;;;;;8.17;100.00;99688.41;4408172;32;20471;-80
2022/10/05 01:02:09;;;;;;;6.55;2.78;;;;;;;8.07;100.00;99685.56;4408189;32;20167;-80
2022/10/05 01:04:53;;;;;;;9.27;2.67;;;;;;;7.99;100.00;99690.44;4408213;32;20094;-80
2022/10/05 01:07:45;;;;;;;4.82;2.55;;;;;;;7.91;100.00;99682.28;4413051;32;20172;-80
2022/10/05 01:10:25;;;;;;;11.57;3.67;;;;;;;7.94;100.00;99689.91;4422085;32;20118;-80
2022/10/05 01:12:55;;;;;;;6.18;2.83;;;;;;;7.94;100.00;99685.50;4423262;32;20169;-80
2022/10/05 01:15:35;;;;;;;4.35;2.37;;;;;;;7.88;100.00;99696.34;4423426;32;20124;-80
2022/10/05 01:18:17;;;;;;;5.20;2.97;;;;;;;7.85;100.00;99695.72;4421084;32;20090;-80
2022/10/05 01:21:12;;;;;;;4.68;2.85;;;;;;;7.81;100.00;99705.47;4422088;32;20094;-80
2022/10/05 01:23:55;;;;;;;3.85;2.28;;;;;;;7.75;100.00;99711.06;4421925;32;20440;-80
2022/10/05 01:26:35;;;;;;;4.53;2.62;;;;;;;7.68;100.00;99708.03;4416394;32;20132;-80
2022/10/05 01:29:29;;;;;;;4.03;1.67;;;;;;;7.65;100.00;99713.44;4407845;32;20422;-80
2022/10/05 01:32:19;;;;;;;5.47;2.30;;;;;;;7.66;100.00;99719.47;4407983;32;20074;-80
2022/10/05 01:34:52;;;;;;;4.03;2.30;;;;;;;7.68;100.00;99709.81;4407811;32;20090;-78
2022/10/05 01:37:31;;;;;;;4.77;2.60;;;;;;;7.72;100.00;99714.75;4407844;32;20089;-80
2022/10/05 01:40:07;;;;;;;4.45;2.17;;;;;;;7.75;100.00;99721.50;4407991;32;20153;-80
2022/10/05 01:43:13;;;;;;;4.78;2.30;;;;;;;7.73;100.00;99724.22;4407466;32;20574;-80
2022/10/05 01:46:18;;;;;;;8.93;2.83;;;;;;;7.72;100.00;99719.09;4407847;32;20153;-80
2022/10/05 01:49:23;;;;;;;6.55;2.17;;;;;;;7.64;100.00;99715.22;4375136;32;20141;-80
2022/10/05 01:52:05;;;;;;;6.07;2.42;;;;;;;7.60;100.00;99716.34;4375052;32;20197;-80
2022/10/05 01:54:46;;;;;;;5.65;2.37;;;;;;;7.55;100.00;99714.94;4375196;32;20554;-80
2022/10/05 01:57:37;;;;;;;5.32;2.42;;;;;;;7.48;100.00;99714.47;4375205;32;20110;-80
2022/10/05 02:00:08;;;;;;;5.12;2.33;;;;;;;7.52;100.00;99715.94;4375119;32;20123;-80
2022/10/05 02:02:48;;;;;;;5.95;2.60;;;;;;;7.45;100.00;99723.31;4374907;32;20106;-80
2022/10/05 02:05:23;;;;;;;4.43;2.12;;;;;;;7.40;100.00;99725.38;4362655;32;20629;-80
2022/10/05 02:07:56;;;;;;;4.57;2.03;;;;;;;7.37;100.00;99732.53;4374958;32;20230;-80
2022/10/05 02:10:31;;;;;;;;;;;;;;;7.30;100.00;99737.28;4375576;32;20111;-81
2022/10/05 02:13:14;;;;;;;7.22;3.08;;;;;;;7.40;100.00;99737.56;4374932;32;20454;-81
2022/10/05 02:16:07;;;;;;;4.37;2.75;;;;;;;7.37;100.00;99746.38;4375130;32;20217;-80
2022/10/05 02:18:42;;;;;;;5.37;2.95;;;;;;;7.40;100.00;99734.94;4374757;32;20138;-80
2022/10/05 02:21:10;;;;;;;10.10;3.50;;;;;;;7.39;100.00;99735.91;4374999;32;20145;-80
2022/10/05 02:23:39;;;;;;;5.75;3.25;;;;;;;7.42;100.00;99738.31;4374797;32;20122;-80
2022/10/05 02:26:10;;;;;;;5.93;4.00;;;;;;;7.40;100.00;99732.34;4399295;32;20093;-80
2022/10/05 02:28:44;;;;;;;6.55;3.78;;;;;;;7.38;100.00;99740.25;4407574;32;20480;-80
2022/10/05 02:31:14;;;;;;;10.80;4.25;;;;;;;7.36;100.00;99730.84;4406177;32;20121;-80
2022/10/05 02:33:42;;;;;;;8.75;4.00;;;;;;;7.38;100.00;99729.81;4407439;32;20121;-80
2022/10/05 02:36:10;;;;;;;12.27;4.60;;;;;;;7.31;100.00;99738.12;4407423;32;20089;-80
2022/10/05 02:38:43;;;;;;;11.30;4.30;;;;;;;7.31;100.00;99743.31;4407217;32;20128;-80
2022/10/05 02:41:29;;;;;;;6.72;4.32;;;;;;;7.26;100.00;99741.81;4407441;32;20449;-80
2022/10/05 02:44:08;;;;;;;9.75;4.90;;;;;;;7.27;100.00;99740.06;4407197;32;20086;-79
2022/10/05 02:46:47;;;;;;;8.68;3.85;;;;;;;7.22;100.00;99735.13;4405817;32;20472;-81
2022/10/05 02:50:05;;;;;;;11.68;4.15;;;;;;;7.20;100.00;99747.41;4407258;32;20144;-80
2022/10/05 02:53:06;;;;;;;7.90;4.32;;;;;;;7.24;100.00;99743.69;4374713;32;20168;-80
2022/10/05 02:55:39;;;;;;;12.52;4.22;;;;;;;7.22;100.00;99734.28;4374759;32;20174;-80
2022/10/05 02:58:20;;;;;;;9.07;3.70;;;;;;;7.31;100.00;99738.12;4374977;32;20111;-80
2022/10/05 03:00:58;;;;;;;7.93;3.87;;;;;;;7.25;100.00;99739.31;4374919;32;20144;-80
2022/10/05 03:03:38;;;;;;;9.38;3.75;;;;;;;7.25;100.00;99739.31;4362398;32;20102;-80
2022/10/05 03:06:17;;;;;;;8.93;4.55;;;;;;;7.34;100.00;99737.94;4362390;32;20222;-80
2022/10/05 03:09:04;;;;;;;11.12;3.97;;;;;;;7.39;100.00;99728.06;4344360;33;20499;-80
2022/10/05 03:11:40;;;;;;;9.00;4.12;;;;;;;7.42;100.00;99725.28;4344584;33;20409;-80
2022/10/05 03:14:13;;;;;;;8.52;3.80;;;;;;;7.41;100.00;99726.22;4344324;33;20531;-79
2022/10/05 03:17:09;;;;;;;9.07;4.18;;;;;;;7.43;100.00;99716.50;4332197;33;20207;-80
2022/10/05 03:19:54;;;;;;;9.90;3.70;;;;;;;7.51;100.00;99721.25;4314867;33;20112;-80
2022/10/05 03:22:47;;;;;;;10.48;3.78;;;;;;;7.56;100.00;99722.66;4306538;32;20600;-80
2022/10/05 03:25:33;;;;;;;8.93;3.60;;;;;;;7.51;100.00;99708.22;4359229;32;20121;-79
2022/10/05 03:28:17;;;;;;;10.63;3.80;;;;;;;7.46;100.00;99713.72;4359177;32;20664;-79
2022/10/05 03:30:54;;;;;;;7.35;3.50;;;;;;;7.35;100.00;99709.16;4359176;32;20170;-80
2022/10/05 03:33:56;;;;;;;6.70;3.30;;;;;;;7.20;100.00;99716.12;4359474;32;20186;-80
2022/10/05 03:36:36;;;;;;;8.25;3.00;;;;;;;7.05;100.00;99717.88;4358656;32;20126;-79
2022/10/05 03:39:10;;;;;;;4.93;3.12;;;;;;;6.90;100.00;99717.06;4346587;32;20480;-80
2022/10/05 03:41:47;;;;;;;;;;;;;;;6.78;100.00;99714.31;4359930;32;20451;-80
2022/10/05 03:44:23;;;;;;;11.75;3.65;;;;;;;6.68;100.00;99724.44;4348858;32;20014;-79
2022/10/05 03:47:35;;;;;;;5.72;3.20;;;;;;;6.55;100.00;99727.72;4361024;32;20138;-79
2022/10/05 03:50:11;;;;;;;4.80;3.33;;;;;;;6.54;100.00;99725.19;4302265;33;20108;-80
2022/10/05 03:52:50;;;;;;;9.73;3.03;;;;;;;6.50;100.00;99727.16;4302161;33;20232;-79
2022/10/05 03:55:20;;;;;;;4.75;3.00;;;;;;;6.51;100.00;99731.44;4306676;33;20133;-79
2022/10/05 03:57:49;;;;;;;6.12;3.25;;;;;;;6.37;100.00;99736.56;4331645;33;20473;-79
2022/10/05 04:00:19;;;;;;;5.22;3.08;;;;;;;6.32;100.00;99738.62;4331164;33;20126;-80
2022/10/05 04:02:49;;;;;;;5.05;3.20;;;;;;;6.24;100.00;99744.25;4331438;33;20653;-80
2022/10/05 04:05:27;;;;;;;10.05;3.28;;;;;;;6.19;100.00;99746.25;4331308;33;20241;-80
2022/10/05 04:08:27;;;;;;;6.18;3.03;;;;;;;6.14;100.00;99741.31;4341221;33;20151;-79
2022/10/05 04:10:57;;;;;;;7.18;2.78;;;;;;;6.22;100.00;99739.12;4301880;33;20108;-80
2022/10/05 04:13:28;;;;;;;6.20;3.45;;;;;;;6.14;100.00;99745.69;4300894;33;20100;-80
2022/10/05 04:16:01;;;;;;;5.35;2.72;;;;;;;6.07;100.00;99742.59;4301575;33;20123;-80
2022/10/05 04:18:48;;;;;;;;;;;;;;;6.06;100.00;99738.31;4300254;33;20117;-80
2022/10/05 04:21:22;;;;;;;5.80;3.17;;;;;;;6.08;100.00;99746.84;4302232;33;19999;-80
2022/10/05 04:24:05;;;;;;;6.45;3.47;;;;;;;6.07;100.00;99750.37;4328283;32;20099;-80
2022/10/05 04:26:48;;;;;;;6.28;3.17;;;;;;;6.06;100.00;99751.31;4360480;32;20161;-80
2022/10/05 04:29:36;;;;;;;4.93;2.97;;;;;;;6.05;100.00;99749.63;4360467;32;20133;-80
2022/10/05 04:32:23;;;;;;;6.15;2.97;;;;;;;6.06;100.00;99751.31;4372475;32;20106;-80
2022/10/05 04:35:10;;;;;;;8.02;2.70;;;;;;;6.07;100.00;99746.94;4372307;32;20117;-80
2022/10/05 04:37:50;;;;;;;8.70;2.80;;;;;;;6.13;100.00;99750.06;4372085;32;20440;-79
2022/10/05 04:40:23;;;;;;;3.92;2.97;;;;;;;6.01;100.00;99751.56;4368022;32;20161;-80
2022/10/05 04:43:22;;;;;;;7.45;2.62;;;;;;;5.99;100.00;99750.78;4370566;32;20126;-80
2022/10/05 04:45:55;;;;;;;6.05;2.90;;;;;;;5.99;100.00;99742.97;4321148;33;20099;-80
2022/10/05 04:48:47;;;;;;;11.43;3.42;;;;;;;5.94;100.00;99747.56;4344899;33;20107;-80
2022/10/05 04:51:33;;;;;;;8.02;2.92;;;;;;;5.98;100.00;99754.31;4347217;32;20505;-80
2022/10/05 04:54:11;;;;;;;5.00;3.17;;;;;;;5.98;100.00;99756.06;4349622;32;20628;-80
2022/10/05 04:56:52;;;;;;;5.50;2.80;;;;;;;5.92;100.00;99753.78;4344323;33;20095;-80
2022/10/05 04:59:28;;;;;;;11.38;3.50;;;;;;;5.87;100.00;99746.22;4342718;32;20150;-80
2022/10/05 05:02:38;;;;;;;4.10;2.87;;;;;;;5.90;100.00;99753.03;4340710;32;20107;-80
2022/10/05 05:05:14;;;;;;;6.50;3.22;;;;;;;5.93;100.00;99751.09;4330858;33;20139;-80
2022/10/05 05:08:05;;;;;;;6.72;2.80;;;;;;;5.85;100.00;99751.50;4348191;32;20470;-80
2022/10/05 05:11:11;;;;;;;7.07;3.03;;;;;;;5.80;100.00;99753.53;4343251;32;20657;-80
2022/10/05 05:13:56;;;;;;;7.47;3.87;;;;;;;5.79;100.00;99758.81;4328806;33;20547;-80
2022/10/05 05:16:34;;;;;;;5.72;3.58;;;;;;;5.78;100.00;99750.16;4337636;33;20552;-80
2022/10/05 05:19:03;;;;;;;7.15;3.83;;;;;;;5.86;100.00;99740.19;4328405;33;20111;-81
2022/10/05 05:21:38;;;;;;;6.10;3.87;;;;;;;5.94;100.00;99744.16;4315975;33;20099;-80
2022/10/05 05:24:30;;;;;;;10.43;4.00;;;;;;;6.09;100.00;99751.13;4355203;32;20111;-79
2022/10/05 05:27:02;;;;;;;7.85;4.22;;;;;;;6.22;100.00;99744.34;4357816;32;20098;-80
2022/10/05 05:29:36;;;;;;;8.18;4.75;;;;;;;6.31;100.00;99742.13;4359585;32;20126;-79
2022/10/05 05:32:16;;;;;;;7.87;4.35;;;;;;;6.43;100.00;99753.62;4357845;32;20215;-78
2022/10/05 05:35:04;;;;;;;13.25;5.00;;;;;;;6.55;100.00;99748.53;4346001;32;20153;-78
2022/10/05 05:37:35;;;;;;;7.80;3.78;;;;;;;6.69;100.00;99747.78;4353007;32;20539;-79
2022/10/05 05:40:25;;;;;;;9.40;4.05;;;;;;;6.81;100.00;99761.00;4367703;32;20259;-79
2022/10/05 05:42:59;;;;;;;8.13;3.55;;;;;;;7.00;100.00;99766.00;4357384;32;20174;-78
2022/10/05 05:45:26;;;;;;;5.57;3.03;;;;;;;7.11;100.00;99753.16;4341760;32;20103;-78
2022/10/05 05:47:58;;;;;;;8.35;3.40;;;;;;;7.26;100.00;99767.88;4355435;32;20110;-79
2022/10/05 05:50:44;;;;;;;8.77;3.58;;;;;;;7.45;100.00;99770.25;4426789;32;20131;-80
2022/10/05 05:53:26;;;;;;;11.45;4.00;;;;;;;7.61;100.00;99775.34;4418044;32;20100;-79
2022/10/05 05:55:59;;;;;;;9.88;4.68;;;;;;;7.78;100.00;99776.09;4392476;32;20163;-79
2022/10/05 05:58:38;;;;;;;6.25;4.25;;;;;;;7.90;100.00;99779.72;4414504;32;20109;-80
2022/10/05 06:01:17;;;;;;;5.57;3.35;;;;;;;8.08;100.00;99789.00;4410711;32;20126;-78
2022/10/05 06:04:14;;;;;;;9.55;3.28;;;;;;;8.34;100.00;99796.97;4426836;32;20173;-78
2022/10/05 06:06:45;;;;;;;8.40;3.40;;;;;;;8.60;100.00;99800.56;4415357;32;20097;-80
2022/10/05 06:09:22;;;;;;;5.50;3.60;;;;;;;8.81;100.00;99795.75;4405966;32;20089;-78
2022/10/05 06:11:56;;;;;;;11.25;3.75;;;;;;;8.92;100.00;99802.87;4417657;32;20081;-80
2022/10/05 06:14:27;;;;;;;6.77;4.13;;;;;;;9.15;100.00;99803.13;4406436;32;20106;-81
2022/10/05 06:17:22;;;;;;;8.20;4.20;;;;;;;9.33;100.00;99807.09;4410484;32;20225;-80
2022/10/05 06:19:52;;;;;;;12.82;3.83;;;;;;;9.49;100.00;99824.38;4406025;32;20086;-80
2022/10/05 06:22:28;;;;;;;9.25;3.53;;;;;;;9.59;100.00;99835.88;4405403;32;20173;-81
2022/10/05 06:25:10;;;;;;;8.05;3.22;;;;;;;9.59;100.00;99844.56;4416482;32;20101;-79
2022/10/05 06:27:59;;;;;;;7.40;3.55;;;;;;;9.55;100.00;99848.34;4419636;32;20097;-81
2022/10/05 06:30:48;;;;;;;7.68;3.72;;;;;;;9.56;100.00;99849.19;4419210;32;20181;-79
2022/10/05 06:33:42;;;;;;;8.73;3.90;;;;;;;9.65;100.00;99848.56;4420489;32;20085;-80
2022/10/05 06:36:38;;;;;;;7.07;3.70;;;;;;;9.92;100.00;99847.59;4398777;32;20102;-78
2022/10/05 06:39:54;;;;;;;9.55;3.97;;;;;;;10.15;100.00;99856.47;4420558;32;20140;-77
2022/10/05 06:42:34;;;;;;;5.55;3.35;;;;;;;10.34;100.00;99852.59;4358397;32;20413;-78
2022/10/05 06:45:17;;;;;;;7.07;3.37;;;;;;;10.43;100.00;99863.25;4374044;32;20114;-78
2022/10/05 06:47:52;;;;;;;5.57;3.50;;;;;;;10.40;100.00;99866.09;4362086;32;20146;-77
2022/10/05 06:50:35;;;;;;;5.87;3.33;;;;;;;10.64;100.00;99867.91;4374184;32;20150;-77
2022/10/05 06:53:21;;;;;;;6.93;3.45;;;;;;;10.80;100.00;99876.31;4361597;32;20095;-78
2022/10/05 06:55:55;;;;;;;7.97;3.80;;;;;;;11.02;100.00;99882.62;4374799;32;20181;-78
2022/10/05 06:58:45;;;;;;;6.80;3.20;;;;;;;11.21;100.00;99876.03;4374197;32;20218;-79
2022/10/05 07:01:24;;;;;;;7.53;3.78;;;;;;;11.37;100.00;99879.19;4367639;32;20681;-82
2022/10/05 07:04:34;;;;;;;7.05;4.32;;;;;;;11.51;100.00;99875.53;4365143;32;20448;-78
2022/10/05 07:07:06;;;;;;;8.18;4.70;;;;;;;11.71;100.00;99881.88;4360417;32;20126;-79
2022/10/05 07:09:52;;;;;;;8.73;4.80;;;;;;;11.95;100.00;99886.25;4373173;32;20129;-79
2022/10/05 07:12:25;;;;;;;8.90;4.37;;;;;;;12.07;100.00;99901.06;4361155;32;20134;-81
2022/10/05 07:14:58;;;;;;;6.20;3.37;;;;;;;12.22;100.00;99899.03;4371258;32;20206;-78
2022/10/05 07:17:48;;;;;;;11.53;3.67;;;;;;;12.30;100.00;99895.81;4382929;32;20157;-80
2022/10/05 07:20:25;;;;;;;7.30;3.75;;;;;;;12.48;100.00;99890.91;4409576;32;20505;-80
2022/10/05 07:23:18;;;;;;;9.25;3.45;;;;;;;12.51;100.00;99893.28;4426672;32;20093;-81
2022/10/05 07:25:46;;;;;;;8.07;4.18;;;;;;;12.49;100.00;99888.16;4422945;32;20168;-81
2022/10/05 07:28:57;;;;;;;7.90;3.85;;;;;;;12.60;100.00;99877.59;4423413;32;20093;-83
2022/10/05 07:31:34;;;;;;;12.70;5.53;;;;;;;12.62;100.00;99881.91;4367023;32;20110;-79
2022/10/05 07:34:05;;;;;;;17.75;4.85;;;;;;;12.80;100.00;99888.31;4375072;32;20170;-78
2022/10/05 07:40:06;;;;;;;15.93;6.95;;;;;;;12.99;100.00;99897.34;4363001;32;20132;-78
2022/10/05 07:42:46;;;;;;;15.50;6.95;;;;;;;12.99;100.00;99902.59;4373888;32;20107;-79
2022/10/05 07:45:21;;;;;;;;;;;;;;;13.12;100.00;99900.63;4376461;32;20106;-79
2022/10/05 07:47:57;;;;;;;10.85;6.15;;;;;;;13.18;100.00;99897.50;4369788;32;20022;-80
2022/10/05 07:50:33;;;;;;;13.73;6.43;;;;;;;13.39;100.00;99902.00;4370457;32;20219;-80
2022/10/05 07:53:05;;;;;;;15.20;7.28;;;;;;;13.32;100.00;99894.59;4363445;32;20106;-79
2022/10/05 07:55:53;;;;;;;15.07;8.25;;;;;;;13.36;100.00;99891.72;4363808;32;20124;-81
2022/10/05 07:58:35;;;;;;;20.88;7.90;;;;;;;13.37;100.00;99898.62;4374722;32;20106;-78
2022/10/05 08:01:12;;;;;;;12.77;7.57;;;;;;;13.44;100.00;99897.19;4375769;32;20145;-77
2022/10/05 08:04:00;;;;;;;12.68;7.40;;;;;;;13.37;100.00;99898.62;4364354;32;20126;-78
2022/10/05 08:06:42;;;;;;;14.98;8.60;;;;;;;13.46;100.00;99903.16;4370655;32;20103;-77
2022/10/05 08:09:51;;;;;;;11.38;7.15;;;;;;;13.28;100.00;99910.75;4411138;32;20858;-77
2022/10/05 08:12:30;;;;;;;15.10;6.65;;;;;;;13.35;100.00;99908.47;4389143;32;20175;-78
2022/10/05 08:15:14;;;;;;;17.65;7.85;;;;;;;13.39;100.00;99909.91;4390814;32;20540;-78
2022/10/05 08:17:48;;;;;;;15.82;7.03;;;;;;;13.56;100.00;99909.31;4377835;32;20107;-79
2022/10/05 08:20:49;;;;;;;8.85;5.95;;;;;;;13.62;100.00;99908.78;4378194;32;20124;-77
2022/10/05 08:23:16;;;;;;;15.18;7.45;;;;;;;13.79;100.00;99915.31;4390735;32;20090;-79
2022/10/05 08:26:21;;;;;;;13.90;6.75;;;;;;;13.85;100.00;99906.03;4389081;32;20220;-78
2022/10/05 08:29:15;;;;;;;11.05;5.50;;;;;;;13.97;100.00;99910.28;4360314;32;20258;-78
2022/10/05 08:31:45;;;;;;;14.98;6.10;;;;;;;13.95;100.00;99906.09;4345770;33;20088;-80
2022/10/05 08:34:22;;;;;;;10.18;7.10;;;;;;;14.02;100.00;99899.34;4357355;32;20117;-81
2022/10/05 08:37:02;;;;;;;9.23;5.18;;;;;;;14.08;100.00;99901.44;4347950;32;20174;-80
2022/10/05 08:39:33;;;;;;;7.68;4.78;;;;;;;14.02;100.00;99900.16;4359096;32;20131;-80
2022/10/05 08:42:22;;;;;;;18.90;9.00;;;;;;;14.17;98.12;99889.25;4358316;32;20480;-78
2022/10/05 08:44:52;;;;;;;9.30;6.53;;;;;;;14.38;98.90;99892.69;4359221;32;20083;-79
2022/10/05 08:47:49;;;;;;;11.95;6.20;;;;;;;14.47;97.55;99890.19;4359823;32;20208;-79
2022/10/05 08:50:35;;;;;;;9.70;5.90;;;;;;;14.59;97.97;99889.13;4374196;32;20134;-79
2022/10/05 08:53:27;;;;;;;11.88;6.62;;;;;;;14.48;99.59;99883.97;4375267;32;20141;-79
2022/10/05 08:56:06;;;;;;;15.65;6.80;;;;;;;14.32;100.00;99880.03;4374595;32;20125;-78
2022/10/05 08:58:39;;;;;;;11.95;6.80;;;;;;;14.06;100.00;99881.47;4375079;32;20119;-78
2022/10/05 09:01:28;;;;;;;12.32;6.45;;;;;;;13.89;100.00;99875.00;4375094;32;20577;-79
2022/10/05 09:04:21;;;;;;;9.23;5.70;;;;;;;13.72;100.00;99876.44;4374285;32;20123;-78
2022/10/05 09:07:21;;;;;;;8.93;6.05;;;;;;;13.92;100.00;99878.19;4359789;32;20103;-79
2022/10/05 09:10:17;;;;;;;12.45;7.00;;;;;;;14.24;100.00;99884.31;4397285;32;20103;-79
2022/10/05 09:12:55;;;;;;;14.13;7.43;;;;;;;14.38;99.98;99884.78;4396086;32;20109;-79
2022/10/05 09:15:33;;;;;;;11.45;6.50;;;;;;;14.68;100.00;99890.97;4414613;32;20552;-79
2022/10/05 09:18:22;;;;;;;13.70;7.05;;;;;;;15.06;98.14;99897.28;4407603;32;20136;-79
2022/10/05 09:21:08;;;;;;;13.52;7.68;;;;;;;15.14;98.64;99904.50;4401844;32;20125;-78
2022/10/05 09:23:41;;;;;;;15.40;8.27;;;;;;;15.34;97.56;99915.91;4391548;32;20487;-80
2022/10/05 09:26:40;;;;;;;12.77;8.10;;;;;;;15.21;99.05;99910.06;4391295;32;20171;-81
2022/10/05 09:29:37;;;;;;;14.87;8.45;;;;;;;15.38;98.60;99912.00;4390248;32;20087;-80
2022/10/05 09:32:17;;;;;;;15.15;7.65;;;;;;;15.62;97.10;99910.72;4387958;32;20122;-81
2022/10/05 09:35:21;;;;;;;10.60;6.65;;;;;;;16.02;94.48;99914.12;4383510;32;20115;-81
2022/10/05 09:38:12;;;;;;;11.10;8.07;;;;;;;16.32;91.37;99908.59;4406613;32;20153;-81
2022/10/05 09:41:13;;;;;;;12.70;5.85;;;;;;;16.15;95.63;99904.06;4404031;32;20117;-80
2022/10/05 09:43:56;;;;;;;13.95;6.90;;;;;;;16.63;84.78;99907.47;4408462;32;20102;-79
2022/10/05 09:46:51;;;;;;;8.98;5.78;;;;;;;16.70;88.96;99913.84;4416920;32;20098;-78
2022/10/05 09:49:37;;;;;;;10.88;6.72;;;;;;;17.16;88.31;99911.19;4391842;32;20142;-76
2022/10/05 09:53:03;;;;;;;15.00;7.07;;;;;;;17.32;88.33;99918.44;4415713;32;20128;-76
2022/10/05 09:55:45;;;;;;;10.70;6.07;;;;;;;17.19;89.56;99911.69;4387915;32;20144;-79
2022/10/05 09:58:32;;;;;;;10.38;6.53;;;;;;;16.77;84.47;99904.31;4374924;32;20137;-78
2022/10/05 10:01:24;;;;;;;8.90;5.00;;;;;;;16.44;86.08;99897.81;4374353;32;20103;-75
2022/10/05 10:04:19;;;;;;;7.60;4.20;;;;;;;16.30;87.54;99901.78;4383109;32;20158;-76
2022/10/05 10:07:24;;;;;;;6.30;4.03;;;;;;;16.09;82.81;99907.28;4388549;32;20465;-75
2022/10/05 10:09:58;;;;;;;6.62;4.12;;;;;;;15.86;82.12;99905.00;4387807;32;20481;-79
2022/10/05 10:12:31;;;;;;;;;;;;;;;15.73;85.08;99900.00;4390142;32;20095;-79
2022/10/05 10:15:22;;;;;;;6.97;3.87;;;;;;;15.78;87.46;99900.44;4379046;32;20020;-76
2022/10/05 10:18:08;;;;;;;8.32;4.65;;;;;;;16.02;90.50;99901.75;4389705;32;20803;-77
2022/10/05 10:20:44;;;;;;;9.48;5.25;;;;;;;16.32;84.69;99900.66;4388924;32;20126;-75
2022/10/05 10:23:26;;;;;;;9.60;5.72;;;;;;;16.49;86.02;99906.97;4389361;32;20129;-78
2022/10/05 10:25:56;;;;;;;11.32;5.28;;;;;;;16.64;87.72;99904.69;4397063;32;20129;-76
2022/10/05 10:29:01;;;;;;;11.10;5.93;;;;;;;16.55;86.71;99896.78;4407657;32;20892;-78
2022/10/05 10:31:28;;;;;;;14.55;6.10;;;;;;;16.49;86.15;99901.69;4392171;32;20149;-78
2022/10/05 10:34:13;;;;;;;11.40;5.85;;;;;;;16.59;86.54;99903.44;4391788;32;20113;-79
2022/10/05 10:37:11;;;;;;;10.48;5.75;;;;;;;16.70;85.90;99908.56;4397685;32;20676;-80
2022/10/05 10:39:46;;;;;;;11.15;6.25;;;;;;;16.96;88.34;99899.91;4433426;32;20109;-75
2022/10/05 10:42:47;;;;;;;10.82;5.15;;;;;;;17.00;87.96;99903.91;4419007;32;20487;-75
2022/10/05 10:45:27;;;;;;;8.27;5.15;;;;;;;17.07;85.67;99904.97;4408142;32;20119;-76
2022/10/05 10:48:18;;;;;;;7.95;4.65;;;;;;;17.25;85.21;99907.63;4420545;32;20081;-75
2022/10/05 10:51:22;;;;;;;10.45;4.57;;;;;;;17.60;86.72;99910.37;4366520;32;20287;-75
2022/10/05 10:54:19;;;;;;;7.68;4.47;;;;;;;17.81;85.02;99897.59;4374142;32;20528;-75
2022/10/05 10:56:51;;;;;;;9.70;5.07;;;;;;;17.75;81.45;99903.53;4370717;32;20107;-73
2022/10/05 10:59:56;;;;;;;7.62;4.53;;;;;;;17.81;81.71;99904.72;4359341;32;20133;-74
2022/10/05 11:02:35;;;;;;;6.87;3.70;;;;;;;18.21;79.64;99895.34;4362219;32;20103;-76
2022/10/05 11:05:22;;;;;;;8.48;4.45;;;;;;;18.25;77.15;99896.72;4353376;32;20243;-75
2022/10/05 11:07:55;;;;;;;4.68;3.37;;;;;;;18.20;79.26;99894.53;4369028;32;20165;-72
2022/10/05 11:10:31;;;;;;;7.30;4.20;;;;;;;17.89;76.71;99899.50;4364573;32;20091;-72
2022/10/05 11:13:37;;;;;;;9.05;3.22;;;;;;;17.81;76.12;99894.13;4355251;32;20445;-73
2022/10/05 11:16:29;;;;;;;11.50;4.50;;;;;;;17.81;76.63;99892.31;4341250;33;20138;-74
2022/10/05 11:19:21;;;;;;;8.63;3.50;;;;;;;17.96;77.37;99894.41;4346444;32;20328;-73
2022/10/05 11:22:43;;;;;;;7.05;3.70;;;;;;;18.13;75.64;99890.84;4340800;32;20107;-72
2022/10/05 11:25:47;;;;;;;4.95;2.85;;;;;;;18.38;75.64;99886.50;4351138;32;20127;-73
2022/10/05 11:28:14;;;;;;;;;;;;;;;18.51;70.73;99887.84;4369116;32;20147;-72
2022/10/05 11:31:05;;;;;;;8.88;2.87;;;;;;;18.44;68.92;99885.03;4380902;32;181606;-69
2022/10/05 11:33:57;;;;;;;6.28;2.40;;;;;;;18.39;68.67;99885.47;4373280;32;20136;-73
2022/10/05 11:36:33;;;;;;;3.83;2.12;;;;;;;18.33;69.48;99880.00;4379641;32;20126;-73
2022/10/05 11:39:17;;;;;;;3.70;2.62;;;;;;;18.48;68.23;99882.88;4384571;32;20173;-73
2022/10/05 11:41:59;;;;;;;3.45;2.47;;;;;;;18.53;68.41;99876.09;4379285;32;20197;-73
2022/10/05 11:44:49;;;;;;;6.78;2.62;;;;;;;18.62;66.80;99875.12;4376577;32;20122;-73
2022/10/05 11:47:25;;;;;;;5.25;2.37;;;;;;;18.42;68.21;99871.06;4381386;32;20115;-73
2022/10/05 11:50:15;;;;;;;3.47;2.22;;;;;;;18.42;66.96;99861.28;4388603;32;20122;-72
2022/10/05 11:53:11;;;;;;;5.07;2.53;;;;;;;18.62;68.47;99859.19;4382062;32;20552;-73
2022/10/05 11:56:08;;;;;;;4.45;2.05;;;;;;;18.85;63.70;99858.59;4386095;32;20169;-74
2022/10/05 11:58:42;;;;;;;5.45;2.70;;;;;;;18.99;65.91;99856.31;4372843;32;20134;-73
2022/10/05 12:01:39;;;;;;;6.53;2.50;;;;;;;18.89;65.83;99851.13;4387050;32;20130;-73
2022/10/05 12:04:32;;;;;;;3.87;2.28;;;;;;;18.90;66.07;99856.28;4357155;32;20175;-74
2022/10/05 12:07:42;;;;;;;3.62;2.03;;;;;;;19.22;65.97;99848.50;4363406;32;20148;-76
2022/10/05 12:10:36;;;;;;;4.87;2.00;;;;;;;19.47;62.14;99846.63;4348411;32;20171;-76
2022/10/05 12:13:12;;;;;;;4.65;1.98;;;;;;;19.74;60.99;99831.31;4341112;32;20115;-77
2022/10/05 12:15:47;;;;;;;4.53;2.15;;;;;;;19.96;60.07;99829.78;4342248;33;20123;-74
2022/10/05 12:18:23;;;;;;;6.28;2.00;;;;;;;19.91;59.07;99835.63;4340476;33;20944;-74
2022/10/05 12:20:55;;;;;;;3.28;2.05;;;;;;;19.91;57.93;99838.28;4340108;32;20190;-74
2022/10/05 12:23:40;;;;;;;3.42;2.00;;;;;;;19.80;59.18;99843.94;4340708;32;20108;-74
2022/10/05 12:26:13;;;;;;;3.83;1.90;;;;;;;19.61;60.78;99832.66;4344447;32;20095;-74
2022/10/05 12:28:46;;;;;;;2.87;1.62;;;;;;;19.58;59.25;99833.00;4343737;33;20170;-73
2022/10/05 12:31:50;;;;;;;2.70;1.85;;;;;;;19.61;57.41;99831.84;4374088;32;20418;-75
2022/10/05 12:34:23;;;;;;;5.70;1.93;;;;;;;19.47;60.42;99830.69;4375224;32;20165;-74
2022/10/05 12:36:57;;;;;;;2.97;2.20;;;;;;;19.51;62.04;99834.66;4359774;32;20309;-74
2022/10/05 12:39:58;;;;;;;5.72;2.37;;;;;;;19.53;61.16;99835.34;4360821;32;20102;-74
2022/10/05 12:42:31;;;;;;;4.90;2.50;;;;;;;19.47;61.16;99831.53;4369247;32;20131;-74
2022/10/05 12:45:18;;;;;;;3.00;2.00;;;;;;;19.35;61.22;99826.72;4370961;32;20103;-73
2022/10/05 12:48:04;;;;;;;3.08;2.00;;;;;;;19.29;58.84;99829.06;4396393;32;20110;-74